CheckWX is a tool to help pilots better visualize weather data.  It is not intended as a substitute for an official pre-flight weather briefing.

12:23:54 UTC

CYQY METAR
Sydney / J.A. Douglas McCurdy Airport
Sydney, Canada
Current

24 mins ago

CYQY 161200Z 01004KT 15SM SCT018 BKN028 18/15 A2987 RMK CU4SC1 SLP118 DENSITY ALT 700FT
Observed
Jul-16 @ 12:00 UTC
Wind
  • 010° at 4 KTS
Visibility
15 SM
Flight Rules
MVFR
Cloud Levels
  • Scattered at 1,800' AGL
  • Broken at 2,800' AGL
Temperature
18°C / 64°F
Dewpoint
15°C / 59°F
Humidity
83%
Altimeter
29.87" Hg
Pressure
1011.52 hPa
Previous

1 hour ago

CYQY 161100Z 33004KT 15SM FEW015 BKN018 17/14 A2986 RMK SC2SC4 SLP113 DENSITY ALT 600FT
Observed
Jul-16 @ 11:00 UTC
Wind
  • 330° at 4 KTS
Visibility
15 SM
Flight Rules
MVFR
Cloud Levels
  • Few at 1,500' AGL
  • Broken at 1,800' AGL
Temperature
17°C / 63°F
Dewpoint
14°C / 57°F
Humidity
83%
Altimeter
29.86" Hg
Pressure
1011.22 hPa
Previous

2 hours ago

CYQY 161000Z 29006KT 15SM FEW018 BKN030 16/14 A2985 RMK SC2SC5 SLP111 DENSITY ALT 500FT
Observed
Jul-16 @ 10:00 UTC
Wind
  • 290° at 6 KTS
Visibility
15 SM
Flight Rules
MVFR
Cloud Levels
  • Few at 1,800' AGL
  • Broken at 3,000' AGL
Temperature
16°C / 61°F
Dewpoint
14°C / 57°F
Humidity
88%
Altimeter
29.85" Hg
Pressure
1010.82 hPa